Time;durP1;ratioP1;P1;durP2;ratioP2;P2;SDS_P1;SDS_P2;PMS_P1;PMS_P2;Temp;Humidity;BMP_temperature;BMP_pressure;BME280_temperature;BME280_humidity;BME280_pressure;Samples;Min_cycle;Max_cycle;Signal;HPM_P1;HPM_P2
2021/10/20 00:02:03;;;;;;;7.53;5.30;;;14.80;99.90;;;;;;5072291;28;20534;-84
2021/10/20 00:04:30;;;;;;;5.13;4.70;;;14.70;99.90;;;;;;5072933;28;20985;-83
2021/10/20 00:06:58;;;;;;;4.90;4.50;;;14.50;99.90;;;;;;5073602;28;20485;-83
2021/10/20 00:09:25;;;;;;;5.03;4.50;;;14.50;99.90;;;;;;5073761;28;20824;-84
2021/10/20 00:11:52;;;;;;;6.07;5.57;;;14.50;99.90;;;;;;5073593;28;20491;-84
2021/10/20 00:14:18;;;;;;;6.60;5.93;;;14.40;99.90;;;;;;5073922;28;20471;-84
2021/10/20 00:16:46;;;;;;;7.60;5.50;;;14.40;99.90;;;;;;5073470;28;20482;-84
2021/10/20 00:19:13;;;;;;;6.20;5.70;;;14.40;99.90;;;;;;5073249;28;20501;-84
2021/10/20 00:21:40;;;;;;;5.90;5.30;;;14.40;99.90;;;;;;5072873;28;20452;-84
2021/10/20 00:24:06;;;;;;;5.40;5.00;;;14.30;99.90;;;;;;5072900;28;20527;-83
2021/10/20 00:26:33;;;;;;;6.90;6.07;;;14.30;99.90;;;;;;5073019;28;20479;-83
2021/10/20 00:29:00;;;;;;;6.77;6.13;;;14.20;99.90;;;;;;5072918;28;20523;-83
2021/10/20 00:31:26;;;;;;;7.53;6.40;;;14.20;99.90;;;;;;5066058;28;20558;-83
2021/10/20 00:33:54;;;;;;;7.47;6.70;;;14.20;99.90;;;;;;5072963;28;20471;-83
2021/10/20 00:36:21;;;;;;;9.57;7.13;;;14.10;99.90;;;;;;5074978;28;20870;-82
2021/10/20 00:38:47;;;;;;;7.20;6.50;;;14.10;99.90;;;;;;5080075;28;20494;-82
2021/10/20 00:41:14;;;;;;;9.70;6.53;;;14.10;99.90;;;;;;5073274;28;20475;-82
2021/10/20 00:43:42;;;;;;;8.80;6.53;;;14.10;99.90;;;;;;5067183;28;20496;-84
2021/10/20 00:46:08;;;;;;;7.77;6.57;;;14.10;99.90;;;;;;5064709;28;20495;-84
2021/10/20 00:48:35;;;;;;;8.23;7.53;;;14.00;99.90;;;;;;5067008;28;20870;-83
2021/10/20 00:51:03;;;;;;;8.50;7.23;;;14.00;99.90;;;;;;5072738;28;20478;-84
2021/10/20 00:53:29;;;;;;;9.37;8.37;;;14.00;99.90;;;;;;5072546;28;20915;-83
2021/10/20 00:55:56;;;;;;;8.37;7.07;;;13.90;99.90;;;;;;5072613;28;20501;-82
2021/10/20 00:58:23;;;;;;;10.13;8.77;;;13.90;99.90;;;;;;5072678;28;20550;-82
2021/10/20 01:00:49;;;;;;;9.53;8.60;;;13.90;99.90;;;;;;5072565;28;20530;-83
2021/10/20 01:03:16;;;;;;;8.80;7.90;;;13.90;99.90;;;;;;5056329;28;20505;-83
2021/10/20 01:05:43;;;;;;;10.10;8.53;;;13.90;99.90;;;;;;5072371;28;20497;-82
2021/10/20 01:08:11;;;;;;;9.27;7.97;;;14.00;99.90;;;;;;5072531;28;20489;-82
2021/10/20 01:10:38;;;;;;;9.77;8.70;;;13.90;99.90;;;;;;5072547;28;20479;-83
2021/10/20 01:13:05;;;;;;;9.93;8.27;;;13.80;99.90;;;;;;5073312;28;20471;-82
2021/10/20 01:15:31;;;;;;;9.17;8.13;;;13.90;99.90;;;;;;5076537;28;20486;-82
2021/10/20 01:17:58;;;;;;;11.63;10.03;;;13.90;99.90;;;;;;5076486;28;20448;-82
2021/10/20 01:20:26;;;;;;;9.80;8.83;;;13.90;99.90;;;;;;5076510;28;21015;-82
2021/10/20 01:22:57;;;;;;;12.20;8.57;;;13.90;99.90;;;;;;5076487;28;20525;-82
2021/10/20 01:25:24;;;;;;;9.77;8.77;;;13.90;99.90;;;;;;5076233;28;20482;-82
2021/10/20 01:27:50;;;;;;;9.93;8.93;;;13.90;99.90;;;;;;5076037;28;20497;-82
2021/10/20 01:30:17;;;;;;;10.33;9.33;;;13.90;99.90;;;;;;5076424;28;20478;-83
2021/10/20 01:32:45;;;;;;;9.50;8.60;;;13.90;99.90;;;;;;5076767;28;20475;-83
2021/10/20 01:35:11;;;;;;;11.20;9.50;;;13.80;99.90;;;;;;5076270;28;20965;-83
2021/10/20 01:37:39;;;;;;;9.93;9.03;;;13.80;99.90;;;;;;5076352;28;20494;-83
2021/10/20 01:40:09;;;;;;;11.27;9.70;;;13.80;99.90;;;;;;5075919;28;20846;-83
2021/10/20 01:42:36;;;;;;;13.27;10.33;;;13.70;99.90;;;;;;5076063;28;20488;-83
2021/10/20 01:45:07;;;;;;;10.70;9.60;;;13.80;99.90;;;;;;5076331;28;20501;-84
2021/10/20 01:47:34;;;;;;;11.07;10.00;;;13.80;99.90;;;;;;5076511;28;20474;-83
2021/10/20 01:50:00;;;;;;;10.70;9.70;;;13.80;99.90;;;;;;5076240;28;20474;-83
2021/10/20 01:52:27;;;;;;;9.37;8.47;;;13.80;99.90;;;;;;5075834;28;20565;-83
2021/10/20 01:54:53;;;;;;;11.17;9.97;;;13.80;99.90;;;;;;5075727;28;20470;-83
2021/10/20 01:57:21;;;;;;;15.20;10.77;;;13.70;99.90;;;;;;5075840;28;20448;-83
2021/10/20 01:59:48;;;;;;;10.93;9.93;;;13.80;99.90;;;;;;5075871;28;20467;-83
2021/10/20 02:02:19;;;;;;;11.03;10.03;;;13.80;99.90;;;;;;5075805;28;20479;-83
2021/10/20 02:04:45;;;;;;;10.27;9.30;;;13.70;99.90;;;;;;5075697;28;20467;-83
2021/10/20 02:07:12;;;;;;;11.20;10.10;;;13.70;99.90;;;;;;5075844;28;20479;-83
2021/10/20 02:09:39;;;;;;;11.20;10.10;;;13.70;99.90;;;;;;5075240;28;20443;-83
2021/10/20 02:12:06;;;;;;;11.10;10.00;;;13.70;99.90;;;;;;5075435;28;20467;-83
2021/10/20 02:14:35;;;;;;;11.67;10.47;;;13.70;99.90;;;;;;5075484;28;20505;-82
2021/10/20 02:17:01;;;;;;;13.30;9.83;;;13.70;99.90;;;;;;5075389;28;20471;-81
2021/10/20 02:19:28;;;;;;;11.23;10.13;;;13.80;99.90;;;;;;5075433;28;20535;-81
2021/10/20 02:21:55;;;;;;;10.27;9.17;;;13.70;99.90;;;;;;5075339;28;20440;-81
2021/10/20 02:24:22;;;;;;;11.37;10.27;;;13.70;99.90;;;;;;5073212;28;20436;-82
2021/10/20 02:26:48;;;;;;;14.53;9.70;;;13.70;99.90;;;;;;5073725;28;20447;-81
2021/10/20 02:29:15;;;;;;;11.73;9.90;;;13.70;99.90;;;;;;5073546;28;20475;-83
2021/10/20 02:31:46;;;;;;;12.07;10.00;;;13.60;99.90;;;;;;5075514;28;20536;-83
2021/10/20 02:34:13;;;;;;;10.47;9.47;;;13.60;99.90;;;;;;5075237;28;20672;-81
2021/10/20 02:36:40;;;;;;;10.70;9.70;;;13.70;99.90;;;;;;5075728;28;20483;-81
2021/10/20 02:39:07;;;;;;;10.73;9.50;;;13.60;99.90;;;;;;5075084;28;20510;-81
2021/10/20 02:41:33;;;;;;;10.03;8.80;;;13.60;99.90;;;;;;5075717;28;20451;-81
2021/10/20 02:44:00;;;;;;;10.40;9.40;;;13.60;99.90;;;;;;5075671;28;20487;-83
2021/10/20 02:46:27;;;;;;;10.27;9.20;;;13.60;99.90;;;;;;5075482;28;20452;-83
2021/10/20 02:48:55;;;;;;;10.73;9.37;;;13.60;99.90;;;;;;5075718;28;20448;-83
2021/10/20 02:51:21;;;;;;;11.00;9.53;;;13.60;99.90;;;;;;5075163;28;20486;-81
2021/10/20 02:53:48;;;;;;;11.07;10.07;;;13.60;99.90;;;;;;5074941;28;20479;-81
2021/10/20 02:56:15;;;;;;;10.30;9.20;;;13.50;99.90;;;;;;5074782;28;20459;-80
2021/10/20 02:58:42;;;;;;;11.70;10.53;;;13.50;99.90;;;;;;5074895;28;20455;-80
2021/10/20 03:01:09;;;;;;;11.03;9.93;;;13.50;99.90;;;;;;5074784;28;20962;-80
2021/10/20 03:03:35;;;;;;;12.00;10.80;;;13.50;99.90;;;;;;5074647;28;20858;-79
2021/10/20 03:06:03;;;;;;;12.93;10.53;;;13.40;99.90;;;;;;5074661;28;20494;-79
2021/10/20 03:08:30;;;;;;;11.50;10.40;;;13.40;99.90;;;;;;5074769;28;20455;-80
2021/10/20 03:10:57;;;;;;;11.50;10.40;;;13.40;99.90;;;;;;5074625;28;20459;-80
2021/10/20 03:13:24;;;;;;;15.30;10.37;;;13.30;99.90;;;;;;5074561;28;20574;-80
2021/10/20 03:15:50;;;;;;;10.00;9.00;;;13.30;99.90;;;;;;5074244;28;20498;-80
2021/10/20 03:18:17;;;;;;;10.93;9.67;;;13.30;99.90;;;;;;5074549;28;20447;-80
2021/10/20 03:20:43;;;;;;;10.80;9.73;;;13.30;99.90;;;;;;5074105;28;20489;-81
2021/10/20 03:23:11;;;;;;;10.43;9.53;;;13.30;99.90;;;;;;5074608;28;20483;-81
2021/10/20 03:25:38;;;;;;;12.17;10.10;;;13.20;99.90;;;;;;5074357;28;20513;-81
2021/10/20 03:28:05;;;;;;;11.43;10.23;;;13.20;99.90;;;;;;5074142;28;20501;-81
2021/10/20 03:30:31;;;;;;;10.00;9.00;;;13.20;99.90;;;;;;5073991;28;20520;-81
2021/10/20 03:32:58;;;;;;;12.83;10.33;;;13.30;99.90;;;;;;5074009;28;20467;-81
2021/10/20 03:35:24;;;;;;;10.33;9.30;;;13.20;99.90;;;;;;5074207;28;20455;-83
2021/10/20 03:37:51;;;;;;;11.07;9.47;;;13.20;99.90;;;;;;5074199;28;20483;-83
2021/10/20 03:40:19;;;;;;;11.30;10.10;;;13.30;99.90;;;;;;5070726;28;20507;-83
2021/10/20 03:42:45;;;;;;;9.97;9.03;;;13.30;99.90;;;;;;5060391;28;20451;-83
2021/10/20 03:45:13;;;;;;;11.83;10.63;;;13.30;99.90;;;;;;5072837;28;20478;-83
2021/10/20 03:47:39;;;;;;;11.20;10.03;;;13.30;99.90;;;;;;5072904;28;20490;-82
2021/10/20 03:50:07;;;;;;;12.27;11.07;;;13.30;99.90;;;;;;5074295;28;20448;-82
2021/10/20 03:52:34;;;;;;;10.30;9.27;;;13.30;99.90;;;;;;5074266;28;20558;-82
2021/10/20 03:55:01;;;;;;;11.27;10.17;;;13.30;99.90;;;;;;5074284;28;20451;-82
2021/10/20 03:57:34;;;;;;;10.60;9.17;;;13.30;99.90;;;;;;5074164;28;20497;-82
2021/10/20 04:00:00;;;;;;;10.20;9.30;;;13.30;99.90;;;;;;5073908;28;20520;-82
2021/10/20 04:02:27;;;;;;;10.77;9.67;;;13.30;99.90;;;;;;5073848;28;20478;-81
2021/10/20 04:04:53;;;;;;;11.27;9.50;;;13.30;99.90;;;;;;5073558;28;20501;-82
2021/10/20 04:07:20;;;;;;;9.07;8.20;;;13.30;99.90;;;;;;5073478;28;20648;-82
2021/10/20 04:09:46;;;;;;;10.00;9.00;;;13.30;99.90;;;;;;5073497;28;20479;-82
2021/10/20 04:12:13;;;;;;;9.63;8.70;;;13.40;99.90;;;;;;5073871;28;20542;-82
2021/10/20 04:14:41;;;;;;;9.97;8.97;;;13.40;99.90;;;;;;5073901;28;20487;-83
2021/10/20 04:17:07;;;;;;;9.30;8.50;;;13.40;99.90;;;;;;5073787;28;20477;-83
2021/10/20 04:19:34;;;;;;;8.97;8.07;;;13.40;99.90;;;;;;5073483;28;20447;-83
2021/10/20 04:22:00;;;;;;;10.17;8.67;;;13.40;99.90;;;;;;5073638;28;20448;-83
2021/10/20 04:24:27;;;;;;;11.03;9.03;;;13.40;99.90;;;;;;5073278;28;20447;-83
2021/10/20 04:26:53;;;;;;;9.57;8.57;;;13.40;99.90;;;;;;5073387;28;20443;-82
2021/10/20 04:29:20;;;;;;;8.67;7.87;;;13.40;99.90;;;;;;5073151;28;20447;-82
2021/10/20 04:31:48;;;;;;;8.73;7.93;;;13.40;99.90;;;;;;5073148;28;20478;-83
2021/10/20 04:34:16;;;;;;;9.20;8.30;;;13.40;99.90;;;;;;5074027;28;20515;-83
2021/10/20 04:36:43;;;;;;;9.90;8.60;;;13.40;99.90;;;;;;5073381;28;20458;-83
2021/10/20 04:39:09;;;;;;;8.97;8.07;;;13.40;99.90;;;;;;5073415;28;20978;-81
2021/10/20 04:41:36;;;;;;;9.17;8.27;;;13.30;99.90;;;;;;5073298;28;20493;-81
2021/10/20 04:44:02;;;;;;;8.80;7.90;;;13.30;99.90;;;;;;5073133;28;20450;-83
2021/10/20 04:46:29;;;;;;;9.43;8.47;;;13.30;99.90;;;;;;5073693;28;20556;-84
2021/10/20 04:48:57;;;;;;;12.43;9.10;;;13.30;99.90;;;;;;5072995;28;20447;-84
2021/10/20 04:51:23;;;;;;;12.17;10.90;;;13.30;99.90;;;;;;5073405;28;20447;-84
2021/10/20 04:53:50;;;;;;;17.23;15.47;;;13.30;99.90;;;;;;5073168;28;21005;-83
2021/10/20 04:56:17;;;;;;;10.43;9.40;;;13.30;99.90;;;;;;5072825;28;20479;-83
2021/10/20 04:58:43;;;;;;;12.60;9.60;;;13.30;99.90;;;;;;5073380;28;20861;-83
2021/10/20 05:01:10;;;;;;;9.83;8.47;;;13.30;99.90;;;;;;5073374;28;20451;-82
2021/10/20 05:03:36;;;;;;;7.97;7.20;;;13.30;99.90;;;;;;5073372;28;20492;-83
2021/10/20 05:06:05;;;;;;;8.50;7.80;;;13.20;99.90;;;;;;5072933;28;20483;-82
2021/10/20 05:08:31;;;;;;;8.30;7.60;;;13.20;99.90;;;;;;5073101;28;20471;-83
2021/10/20 05:10:58;;;;;;;8.00;7.30;;;13.20;99.90;;;;;;5072852;28;20502;-82
2021/10/20 05:13:25;;;;;;;8.70;7.90;;;13.20;99.90;;;;;;5072940;28;20521;-83
2021/10/20 05:15:51;;;;;;;8.00;7.30;;;13.20;99.90;;;;;;5073220;28;20885;-83
2021/10/20 05:18:18;;;;;;;8.07;7.37;;;13.20;99.90;;;;;;5073259;28;20451;-82
2021/10/20 05:20:44;;;;;;;8.37;7.67;;;13.20;99.90;;;;;;5072832;28;20538;-80
2021/10/20 05:23:12;;;;;;;7.97;7.33;;;13.20;99.90;;;;;;5072720;28;20513;-80
2021/10/20 05:25:39;;;;;;;7.90;7.20;;;13.20;99.90;;;;;;5072835;28;20895;-84
2021/10/20 05:28:06;;;;;;;8.13;7.07;;;13.20;99.90;;;;;;5072978;28;20909;-82
2021/10/20 05:30:33;;;;;;;8.10;7.03;;;13.20;99.90;;;;;;5073214;28;20451;-82
2021/10/20 05:33:01;;;;;;;7.70;6.97;;;13.20;99.90;;;;;;5073063;28;20596;-81
2021/10/20 05:35:28;;;;;;;8.47;7.63;;;13.20;99.90;;;;;;5073089;28;20842;-82
2021/10/20 05:37:54;;;;;;;8.27;7.07;;;13.20;99.90;;;;;;5073072;28;20451;-82
2021/10/20 05:40:24;;;;;;;8.53;7.27;;;13.10;99.90;;;;;;5072348;28;20509;-81
2021/10/20 05:42:51;;;;;;;7.90;7.13;;;13.20;99.90;;;;;;5069327;28;20447;-81
2021/10/20 05:45:18;;;;;;;8.00;6.40;;;13.20;99.90;;;;;;5071713;28;20969;-82
2021/10/20 05:47:44;;;;;;;6.67;6.00;;;13.20;99.90;;;;;;5071879;28;20475;-82
2021/10/20 05:50:12;;;;;;;6.50;5.90;;;13.20;99.90;;;;;;5072043;28;20504;-82
2021/10/20 05:52:39;;;;;;;5.90;5.40;;;13.20;99.90;;;;;;5069178;28;20520;-83
2021/10/20 05:55:06;;;;;;;7.40;6.67;;;13.20;99.90;;;;;;5073207;28;20514;-83
2021/10/20 05:57:37;;;;;;;7.27;6.57;;;13.30;99.90;;;;;;5073581;28;20443;-82
2021/10/20 06:00:06;;;;;;;9.60;6.10;;;13.30;99.90;;;;;;5073948;28;20477;-83
2021/10/20 06:02:32;;;;;;;6.90;6.17;;;13.30;99.90;;;;;;5076889;28;20482;-83
2021/10/20 06:04:59;;;;;;;5.63;5.13;;;13.30;99.90;;;;;;5075648;28;20447;-82
2021/10/20 06:07:25;;;;;;;5.70;5.20;;;13.30;99.90;;;;;;5076138;28;20474;-83
2021/10/20 06:09:52;;;;;;;5.87;5.37;;;13.40;99.90;;;;;;5076864;28;20447;-83
2021/10/20 06:12:18;;;;;;;6.37;5.77;;;13.40;99.90;;;;;;5077008;28;20451;-81
2021/10/20 06:14:49;;;;;;;6.00;5.40;;;13.40;99.90;;;;;;5076366;28;20559;-81
2021/10/20 06:17:15;;;;;;;6.20;5.60;;;13.50;99.90;;;;;;5075704;28;20990;-82
2021/10/20 06:19:42;;;;;;;5.73;5.33;;;13.40;99.90;;;;;;5077881;28;20505;-82
2021/10/20 06:22:09;;;;;;;6.80;5.60;;;13.50;99.90;;;;;;5077251;28;20925;-81
2021/10/20 06:24:35;;;;;;;7.50;6.10;;;13.50;99.90;;;;;;5076422;28;20447;-82
2021/10/20 06:27:02;;;;;;;5.73;5.23;;;13.60;99.90;;;;;;5076266;28;20452;-83
2021/10/20 06:29:28;;;;;;;6.00;5.43;;;13.60;99.90;;;;;;5076190;28;20483;-83
2021/10/20 06:31:56;;;;;;;6.03;4.63;;;13.60;99.90;;;;;;5076356;28;20479;-82
2021/10/20 06:34:25;;;;;;;7.30;5.20;;;13.70;99.90;;;;;;5072659;28;20541;-84
2021/10/20 06:36:51;;;;;;;5.00;4.60;;;13.70;99.90;;;;;;5072677;28;20452;-82
2021/10/20 06:39:21;;;;;;;4.17;3.87;;;13.80;99.90;;;;;;5074639;28;20953;-82
2021/10/20 06:41:48;;;;;;;4.33;3.97;;;13.80;99.90;;;;;;5075408;28;20443;-85
2021/10/20 06:44:15;;;;;;;4.07;3.77;;;13.80;99.90;;;;;;5075388;28;20436;-84
2021/10/20 06:46:41;;;;;;;5.60;4.57;;;13.90;99.90;;;;;;5075395;28;20500;-84
2021/10/20 06:49:09;;;;;;;5.00;4.60;;;13.90;99.90;;;;;;5075498;28;20779;-84
2021/10/20 06:51:36;;;;;;;4.70;4.30;;;14.00;99.90;;;;;;5075748;28;20536;-84
2021/10/20 06:54:03;;;;;;;4.93;4.50;;;14.00;99.90;;;;;;5075558;28;20474;-82
2021/10/20 06:56:29;;;;;;;6.17;4.70;;;14.10;99.90;;;;;;5075557;28;20444;-82
2021/10/20 06:58:56;;;;;;;5.07;4.57;;;14.20;99.90;;;;;;5075252;28;21020;-82
2021/10/20 07:01:22;;;;;;;4.50;4.10;;;14.30;99.90;;;;;;5072928;28;20452;-84
2021/10/20 07:03:49;;;;;;;4.50;4.17;;;14.40;99.90;;;;;;5075228;28;20499;-83
2021/10/20 07:06:17;;;;;;;4.03;3.73;;;14.40;99.90;;;;;;5075111;28;20780;-83
2021/10/20 07:08:43;;;;;;;3.77;3.57;;;14.40;99.90;;;;;;5075038;28;20893;-83
2021/10/20 07:11:10;;;;;;;4.80;3.90;;;14.50;99.90;;;;;;5074138;28;20543;-82
2021/10/20 07:13:37;;;;;;;4.20;3.90;;;14.50;99.90;;;;;;5074324;28;20463;-82
2021/10/20 07:16:04;;;;;;;5.17;3.80;;;14.50;99.90;;;;;;5075195;28;20486;-80
2021/10/20 07:18:31;;;;;;;4.10;3.70;;;14.50;99.90;;;;;;5074623;28;20459;-73
2021/10/20 07:20:58;;;;;;;3.90;3.50;;;14.50;99.90;;;;;;5074306;28;20443;-75
2021/10/20 07:23:26;;;;;;;4.03;3.70;;;14.60;99.90;;;;;;5073910;28;20815;-74
2021/10/20 07:25:53;;;;;;;3.33;3.13;;;14.50;99.90;;;;;;5074280;28;20444;-74
2021/10/20 07:28:19;;;;;;;4.93;3.43;;;14.60;99.90;;;;;;5074098;28;20863;-74
2021/10/20 07:30:46;;;;;;;5.07;3.93;;;14.60;99.90;;;;;;5074180;28;20539;-75
2021/10/20 07:33:12;;;;;;;2.90;2.70;;;14.70;99.90;;;;;;5074031;28;20826;-75
2021/10/20 07:35:39;;;;;;;4.00;3.70;;;14.80;99.90;;;;;;5069917;28;20948;-75
2021/10/20 07:38:05;;;;;;;4.90;3.80;;;14.80;99.90;;;;;;5073498;28;20839;-74
2021/10/20 07:40:33;;;;;;;3.60;3.30;;;14.90;99.90;;;;;;5069081;28;20491;-74
2021/10/20 07:43:00;;;;;;;4.13;3.63;;;15.00;99.90;;;;;;5070258;28;20530;-74
2021/10/20 07:45:27;;;;;;;4.07;3.73;;;15.20;99.90;;;;;;5073013;28;20807;-75
2021/10/20 07:47:54;;;;;;;3.30;3.10;;;15.30;99.90;;;;;;5072876;28;20792;-74
2021/10/20 07:50:22;;;;;;;3.80;3.50;;;15.50;99.90;;;;;;5073412;28;20475;-74
2021/10/20 07:52:50;;;;;;;3.17;2.90;;;15.70;99.90;;;;;;5073221;28;20539;-74
2021/10/20 07:55:18;;;;;;;3.50;3.30;;;15.70;99.90;;;;;;5073089;28;20495;-74
2021/10/20 07:57:46;;;;;;;3.80;3.43;;;15.80;99.90;;;;;;5073253;28;20472;-74
2021/10/20 08:00:14;;;;;;;3.50;3.20;;;15.90;99.90;;;;;;5073283;28;20546;-74
2021/10/20 08:02:41;;;;;;;3.27;2.87;;;15.90;99.90;;;;;;5073148;28;20443;-75
2021/10/20 08:05:11;;;;;;;3.77;3.20;;;16.00;99.90;;;;;;5073054;28;21008;-74
2021/10/20 08:07:43;;;;;;;5.33;3.40;;;16.10;99.90;;;;;;5073133;28;20486;-74
2021/10/20 08:10:10;;;;;;;4.80;3.67;;;16.10;99.90;;;;;;5072780;28;20444;-74
2021/10/20 08:12:36;;;;;;;5.50;4.33;;;16.10;99.90;;;;;;5072950;28;20803;-75
2021/10/20 08:15:06;;;;;;;4.03;3.47;;;16.10;99.90;;;;;;5072612;28;20566;-74
2021/10/20 08:17:33;;;;;;;6.27;3.47;;;16.10;99.90;;;;;;5072932;28;20439;-74
2021/10/20 08:19:59;;;;;;;5.67;3.87;;;16.10;99.90;;;;;;5072749;28;20842;-74
2021/10/20 08:22:26;;;;;;;3.27;2.97;;;16.10;99.90;;;;;;5072092;28;20587;-74
2021/10/20 08:24:53;;;;;;;3.20;3.00;;;16.10;99.90;;;;;;5072555;28;20486;-74
2021/10/20 08:27:21;;;;;;;2.87;2.70;;;16.10;99.90;;;;;;5072828;28;20487;-74
2021/10/20 08:29:48;;;;;;;3.63;3.27;;;16.00;99.90;;;;;;5072505;28;20485;-74
2021/10/20 08:32:16;;;;;;;4.13;2.77;;;16.00;99.90;;;;;;5070345;28;20799;-74
2021/10/20 08:34:42;;;;;;;3.90;3.60;;;16.10;99.90;;;;;;5072380;28;20883;-74
2021/10/20 08:37:09;;;;;;;3.23;3.00;;;16.10;99.90;;;;;;5072323;28;20539;-75
2021/10/20 08:39:36;;;;;;;3.53;3.23;;;16.20;99.90;;;;;;5071569;28;20566;-75
2021/10/20 08:42:04;;;;;;;4.73;3.20;;;16.40;99.90;;;;;;5059213;28;20451;-74
2021/10/20 08:44:33;;;;;;;3.93;3.60;;;16.50;99.90;;;;;;5072566;28;20433;-74
2021/10/20 08:47:00;;;;;;;4.67;2.90;;;16.60;99.90;;;;;;5072851;28;20455;-74
2021/10/20 08:49:30;;;;;;;3.40;3.10;;;16.70;99.90;;;;;;5072390;28;20489;-75
2021/10/20 08:51:57;;;;;;;2.97;2.73;;;16.80;99.90;;;;;;5072152;28;20850;-74
2021/10/20 08:54:24;;;;;;;3.07;2.87;;;16.90;99.90;;;;;;5072319;28;20475;-75
2021/10/20 08:56:52;;;;;;;7.57;3.90;;;17.10;99.90;;;;;;5072656;28;20455;-79
2021/10/20 08:59:21;;;;;;;3.00;2.80;;;17.20;99.90;;;;;;5072322;28;20521;-75
2021/10/20 09:01:48;;;;;;;5.10;3.20;;;17.20;99.90;;;;;;5069457;28;20451;-74
2021/10/20 09:04:19;;;;;;;3.37;3.10;;;17.30;99.90;;;;;;5071611;28;20447;-74
2021/10/20 09:06:46;;;;;;;3.07;2.80;;;17.40;99.90;;;;;;5071794;28;21012;-74
2021/10/20 09:09:14;;;;;;;3.20;3.00;;;17.40;99.90;;;;;;5071801;28;20934;-74
2021/10/20 09:11:41;;;;;;;3.20;2.90;;;17.40;99.90;;;;;;5071895;28;20788;-74
2021/10/20 09:14:10;;;;;;;3.30;3.07;;;17.30;99.90;;;;;;5071907;28;20443;-74
2021/10/20 09:16:38;;;;;;;3.23;2.93;;;17.20;99.90;;;;;;5071834;28;20443;-75
2021/10/20 09:19:13;;;;;;;3.47;3.17;;;17.20;99.90;;;;;;5071911;28;20530;-74
2021/10/20 09:21:50;;;;;;;3.17;2.97;;;17.30;99.90;;;;;;5072060;28;20447;-74
2021/10/20 09:24:16;;;;;;;2.73;2.53;;;17.40;99.90;;;;;;5062481;28;20447;-74
2021/10/20 09:26:43;;;;;;;3.30;3.10;;;17.60;99.90;;;;;;5071734;28;20486;-74
2021/10/20 09:29:20;;;;;;;3.80;2.90;;;17.50;99.90;;;;;;5071537;28;20548;-75
2021/10/20 09:31:47;;;;;;;3.23;2.93;;;17.50;99.90;;;;;;5071967;28;20587;-74
2021/10/20 09:34:14;;;;;;;2.80;2.60;;;17.30;99.90;;;;;;5072632;28;20478;-74
2021/10/20 09:36:41;;;;;;;3.30;2.80;;;17.20;99.90;;;;;;5075434;28;21115;-74
2021/10/20 09:39:11;;;;;;;4.90;3.50;;;17.00;99.90;;;;;;5075295;28;21031;-74
2021/10/20 09:41:38;;;;;;;3.00;2.80;;;16.80;99.90;;;;;;5075253;28;20486;-74
2021/10/20 09:44:08;;;;;;;3.60;2.80;;;16.60;99.90;;;;;;5075490;28;20493;-74
2021/10/20 09:46:36;;;;;;;3.63;3.27;;;16.40;99.90;;;;;;5075465;28;20509;-74
2021/10/20 09:49:13;;;;;;;4.63;3.10;;;16.30;99.90;;;;;;5075353;28;20446;-74
2021/10/20 09:51:39;;;;;;;4.87;3.30;;;16.30;99.90;;;;;;5075307;28;20489;-74
2021/10/20 09:54:24;;;;;;;4.43;4.00;;;16.20;99.90;;;;;;5075118;28;20529;-74
2021/10/20 09:56:55;;;;;;;3.60;3.03;;;16.20;99.90;;;;;;5075187;28;20452;-74
2021/10/20 09:59:22;;;;;;;3.13;2.77;;;16.20;99.90;;;;;;5074908;28;20483;-74
2021/10/20 10:01:50;;;;;;;3.50;3.10;;;16.10;99.90;;;;;;5074987;28;20486;-74
2021/10/20 10:04:17;;;;;;;2.87;2.67;;;16.10;99.90;;;;;;5075116;28;20535;-74
2021/10/20 10:06:46;;;;;;;3.17;2.87;;;16.10;99.90;;;;;;5074768;28;20865;-74
2021/10/20 10:09:13;;;;;;;2.93;2.73;;;16.10;99.90;;;;;;5075030;28;20864;-74
2021/10/20 10:11:47;;;;;;;3.53;3.23;;;16.00;99.90;;;;;;5074987;28;20485;-74
2021/10/20 10:14:17;;;;;;;3.33;3.03;;;16.00;99.90;;;;;;5065175;28;20466;-74
2021/10/20 10:16:46;;;;;;;3.57;3.20;;;15.90;99.90;;;;;;5074716;28;20447;-74
2021/10/20 10:19:13;;;;;;;3.97;3.57;;;15.80;99.90;;;;;;5074597;28;20502;-74
2021/10/20 10:21:42;;;;;;;4.20;3.67;;;15.70;99.90;;;;;;5074593;28;21008;-75
2021/10/20 10:24:13;;;;;;;3.67;3.37;;;15.60;99.90;;;;;;5064393;28;20444;-74
2021/10/20 10:27:00;;;;;;;4.80;3.37;;;15.40;99.90;;;;;;5074441;28;20482;-74
2021/10/20 10:29:26;;;;;;;3.40;3.10;;;15.40;99.90;;;;;;5070559;28;20443;-74
2021/10/20 10:31:53;;;;;;;4.17;3.80;;;15.40;99.90;;;;;;5074215;28;20443;-74
2021/10/20 10:34:25;;;;;;;4.70;4.03;;;15.30;99.90;;;;;;5073950;28;20482;-74
2021/10/20 10:36:53;;;;;;;4.70;4.30;;;15.20;99.90;;;;;;5070005;28;20870;-74
2021/10/20 10:39:19;;;;;;;5.53;3.70;;;15.10;99.90;;;;;;5069964;28;20476;-74
2021/10/20 10:41:48;;;;;;;5.03;3.70;;;15.10;99.90;;;;;;5074325;28;20472;-74
2021/10/20 10:44:21;;;;;;;4.00;3.70;;;15.10;99.90;;;;;;5074159;28;20505;-74
2021/10/20 10:47:15;;;;;;;4.80;4.40;;;15.20;99.90;;;;;;5073530;28;20439;-74
2021/10/20 10:49:45;;;;;;;6.90;4.97;;;15.30;99.90;;;;;;5071487;28;20445;-74
2021/10/20 10:52:22;;;;;;;4.60;3.70;;;15.50;99.90;;;;;;5074080;28;20444;-74
2021/10/20 10:54:57;;;;;;;5.37;4.30;;;15.70;99.90;;;;;;5074026;28;20467;-74
2021/10/20 10:57:24;;;;;;;3.57;3.30;;;15.90;99.90;;;;;;5073997;28;20439;-74
2021/10/20 11:00:04;;;;;;;5.47;3.53;;;16.10;99.90;;;;;;5074081;28;20505;-74
2021/10/20 11:02:46;;;;;;;3.80;3.60;;;16.30;99.90;;;;;;5074019;28;20538;-74
2021/10/20 11:05:14;;;;;;;4.30;3.20;;;16.40;99.90;;;;;;5073952;28;20451;-74
2021/10/20 11:07:45;;;;;;;3.50;3.20;;;16.70;99.90;;;;;;5073918;28;20475;-74
2021/10/20 11:10:12;;;;;;;3.43;3.13;;;16.90;99.90;;;;;;5074007;28;20452;-74
2021/10/20 11:12:39;;;;;;;3.97;3.67;;;17.00;99.90;;;;;;5073796;28;20476;-74
2021/10/20 11:15:10;;;;;;;3.87;3.00;;;17.10;99.90;;;;;;5073630;28;20470;-74
2021/10/20 11:17:37;;;;;;;3.90;3.60;;;16.90;99.90;;;;;;5073443;28;20530;-74
2021/10/20 11:20:08;;;;;;;3.63;3.30;;;16.90;99.90;;;;;;5073799;28;20479;-74
2021/10/20 11:22:36;;;;;;;4.53;3.37;;;16.80;99.90;;;;;;5073475;28;20522;-74
2021/10/20 11:25:06;;;;;;;3.27;3.07;;;16.70;99.90;;;;;;5073654;28;20869;-74
2021/10/20 11:27:34;;;;;;;4.00;3.00;;;16.70;99.90;;;;;;5073196;28;21010;-74
2021/10/20 11:30:02;;;;;;;4.40;3.30;;;16.70;99.90;;;;;;5073214;28;20802;-75
2021/10/20 11:32:29;;;;;;;4.40;3.53;;;16.70;99.90;;;;;;5073463;28;20443;-74
2021/10/20 11:34:56;;;;;;;4.33;3.93;;;16.70;99.90;;;;;;5073407;28;20493;-74
2021/10/20 11:37:24;;;;;;;3.50;3.20;;;16.60;99.90;;;;;;5073250;28;20475;-74
2021/10/20 11:39:55;;;;;;;5.83;4.23;;;16.50;99.90;;;;;;5073204;28;20503;-74
2021/10/20 11:42:23;;;;;;;4.00;3.70;;;16.60;99.90;;;;;;5073026;28;20447;-74
2021/10/20 11:44:50;;;;;;;3.73;3.43;;;16.60;99.90;;;;;;5073113;28;20850;-74
2021/10/20 11:47:18;;;;;;;4.20;3.80;;;16.70;99.90;;;;;;5072875;28;20986;-74
2021/10/20 11:49:48;;;;;;;4.03;3.63;;;16.90;99.90;;;;;;5072983;28;20960;-74
2021/10/20 11:52:16;;;;;;;5.10;3.50;;;17.00;99.90;;;;;;5073360;28;20535;-74
2021/10/20 11:54:43;;;;;;;4.30;3.90;;;17.20;99.90;;;;;;5072914;28;20447;-74
2021/10/20 11:57:12;;;;;;;4.80;4.17;;;17.30;99.90;;;;;;5072019;28;20483;-74
2021/10/20 11:59:39;;;;;;;3.73;3.43;;;17.30;99.90;;;;;;5072606;28;21117;-74
2021/10/20 12:02:06;;;;;;;3.50;3.17;;;17.30;99.90;;;;;;5061926;28;20451;-74
2021/10/20 12:04:33;;;;;;;8.40;3.20;;;17.30;99.90;;;;;;5072778;28;20450;-74
2021/10/20 12:07:03;;;;;;;3.33;3.03;;;17.30;99.90;;;;;;5072766;28;20545;-75
2021/10/20 12:09:32;;;;;;;3.27;3.03;;;17.40;99.90;;;;;;5067793;28;20475;-74
2021/10/20 12:12:00;;;;;;;3.10;2.90;;;17.50;99.90;;;;;;5072808;28;20455;-74
2021/10/20 12:14:32;;;;;;;4.80;3.50;;;17.70;99.90;;;;;;5072391;28;20452;-74
2021/10/20 12:17:00;;;;;;;3.50;3.30;;;17.80;99.90;;;;;;5072505;28;21033;-74
2021/10/20 12:19:30;;;;;;;5.90;3.40;;;17.90;99.90;;;;;;5067279;28;20454;-74
2021/10/20 12:21:59;;;;;;;3.80;3.27;;;17.90;99.90;;;;;;5072260;28;20538;-75
2021/10/20 12:24:32;;;;;;;4.63;3.53;;;17.80;99.90;;;;;;5072367;28;20965;-74
2021/10/20 12:26:59;;;;;;;5.77;3.40;;;17.80;99.90;;;;;;5072579;28;20447;-76
2021/10/20 12:29:26;;;;;;;3.47;3.27;;;17.80;99.90;;;;;;5066753;28;20534;-74
2021/10/20 12:31:56;;;;;;;3.00;2.80;;;17.90;99.90;;;;;;5072367;28;20473;-74
2021/10/20 12:34:26;;;;;;;3.40;3.10;;;18.00;99.90;;;;;;5072409;28;20562;-74
2021/10/20 12:36:53;;;;;;;3.30;3.00;;;18.00;99.90;;;;;;5071959;28;21012;-74
2021/10/20 12:39:20;;;;;;;3.33;2.90;;;18.10;99.90;;;;;;5071894;28;21014;-74
2021/10/20 12:41:48;;;;;;;3.73;3.17;;;18.20;99.90;;;;;;5065923;28;20550;-74
2021/10/20 12:44:16;;;;;;;3.00;2.80;;;18.30;99.90;;;;;;5072332;28;20939;-74
2021/10/20 12:46:43;;;;;;;3.13;2.93;;;18.40;99.90;;;;;;5072098;28;20878;-74